Aurora do Tocantins, Brazil
Current Conditions -  °F | °C
As of 1:00 PM on Saturday 25 Oct 2014 (Local Time) from SBPJ Reporting Station
Few Clouds Few Clouds  
Wind Chill: 91°   Ceiling: Unl
Heat Index: 95°   Visibility: 6mi
Dew Point: 68°   Wind: 9mph
Humidity: 46%   Direction: 230°SW
Pressure: 29.83"   Gusts: NA
Location:  12.71°S, 46.41°W
Report Text: SBPJ 251600Z 23008KT 9999 FEW025 FEW030TCU 33/20 Q1010
Loading
Personal Weather Stations






























Interactive Weather Map
Tropical Storm Tracking
New forecast layout! Learn more

10-Day Weather Forecast

Advertisements
Track Severe Weather on mobile